This demonstration page uses our WeatherBlox Daily Observations layout. Learn more.

38.88101, -77.10428

Hourly Observations for March 6, 2016

Temp ( °F °C ) Dew Point ( °F °C ) Humidity (%) Winds ( mph kmh ) Pressure ( in mb ) Visibility ( mi km ) Precip ( " mm )
12:52 am 00:52 Cloudy 37 2.8 28 -2.2 70 70 SE 5 7 30.21 1023 10 16.09344 0 0
1:52 am 01:52 Cloudy 38 3.3 28 -2.2 68 68 SSE 3 6 30.21 1023 10 16.09344 0 0
2:52 am 02:52 Cloudy 38 3.3 29 -1.7 70 70 Calm 30.21 1023 10 16.09344 0 0
3:52 am 03:52 Cloudy with Light Rain 39 3.9 28 -2.2 65 65 Calm 30.21 1023 10 16.09344 0.001 0.001
4:52 am 04:52 Cloudy 39 3.9 31 -0.6 73 73 NE 3 6 30.21 1023 10 16.09344 0.001 0.001
5:52 am 05:52 Cloudy 38 3.3 33 0.6 83 83 NNW 7 11 30.24 1024 9 14.484096 0 0
6:52 am 06:52 Cloudy 38 3.3 33 0.6 83 83 N 3 6 30.27 1025 7 11.265408 0 0
7:52 am 07:52 Cloudy 39 3.9 34 1.1 82 82 NNE 3 6 30.27 1025 7 11.265408 0 0
8:52 am 08:52 Cloudy 40 4.4 34 1.1 79 79 Calm 30.3 1026 7 11.265408 0 0
9:52 am 09:52 Cloudy 42 5.6 33 0.6 71 71 ENE 3 6 30.33 1027 9 14.484096 0 0
10:52 am 10:52 Cloudy 43 6.1 33 0.6 68 68 S 3 6 30.33 1027 10 16.09344 0 0
11:52 am 11:52 Cloudy 45 7.2 34 1.1 66 66 E 3 6 30.3 1026 10 16.09344 0 0
12:52 pm 12:52 Cloudy 47 8.3 33 0.6 59 59 Calm 30.3 1026 10 16.09344 0 0
1:52 pm 13:52 Cloudy 47 8.3 34 1.1 61 61 SSE 5 7 30.27 1025 10 16.09344 0 0
2:52 pm 14:52 Mostly Cloudy 51 10.6 30 -1.1 44 44 NNW 7 11 30.27 1025 10 16.09344 0 0
3:52 pm 15:52 Mostly Cloudy 50 10 29 -1.7 44 44 NNW 8 13 30.27 1025 10 16.09344 0 0
4:52 pm 16:52 Mostly Cloudy 51 10.6 27 -2.8 39 39 W 6 9 30.27 1025 10 16.09344 0 0
5:52 pm 17:52 Mostly Cloudy 49 9.4 26 -3.3 41 41 W 9 15 30.27 1025 10 16.09344 0 0
6:52 pm 18:52 Mostly Cloudy 46 7.8 27 -2.8 47 47 N 8 13 30.3 1026 10 16.09344 0 0
7:52 pm 19:52 Mostly Cloudy 43 6.1 34 1.1 71 71 ESE 7 11 30.3 1026 10 16.09344 0 0
8:52 pm 20:52 Mostly Cloudy 42 5.6 33 0.6 71 71 S 3 6 30.3 1026 10 16.09344 0 0
9:52 pm 21:52 Partly Cloudy 41 5 32 0 70 70 S 5 7 30.3 1026 10 16.09344 0 0
10:52 pm 22:52 Mostly Cloudy 40 4.4 33 0.6 77 77 SSE 5 7 30.3 1026 10 16.09344 0 0
11:52 pm 23:52 Mostly Cloudy 38 3.3 33 0.6 83 83 S 6 9 30.3 1026 10 16.09344 0 0

Powered by AerisWeather